createdAt,value
2022-08-20T00:04:24.363Z,14.63
2022-08-20T00:09:26.637Z,8.18
2022-08-20T00:14:33.872Z,24.35
2022-08-20T00:19:36.157Z,7.90
2022-08-20T00:24:38.255Z,9.80
2022-08-20T00:29:40.101Z,12.45
2022-08-20T00:34:42.499Z,29.83
2022-08-20T00:39:44.904Z,10.43
2022-08-20T00:44:47.784Z,11.82
2022-08-20T00:49:49.617Z,14.40
2022-08-20T00:54:59.729Z,12.05
2022-08-20T01:00:05.953Z,4.80
2022-08-20T01:05:09.297Z,4.50
2022-08-20T01:10:36.766Z,6.13
2022-08-20T01:15:43.325Z,9.32
2022-08-20T01:20:53.976Z,4.97
2022-08-20T01:26:19.002Z,5.55
2022-08-20T01:31:23.292Z,8.30
2022-08-20T01:36:30.309Z,7.05
2022-08-20T01:41:49.899Z,9.13
2022-08-20T01:46:57.693Z,8.18
2022-08-20T01:57:06.962Z,9.20
2022-08-20T02:02:10.261Z,8.00
2022-08-20T02:07:20.310Z,7.63
2022-08-20T02:12:22.126Z,9.07
2022-08-20T02:17:25.550Z,9.07
2022-08-20T02:22:53.771Z,9.55
2022-08-20T02:27:59.062Z,10.05
2022-08-20T02:33:04.027Z,9.80
2022-08-20T02:38:07.957Z,10.85
2022-08-20T02:43:10.478Z,9.55
2022-08-20T02:48:21.096Z,9.25
2022-08-20T02:53:25.214Z,7.18
2022-08-20T02:58:27.523Z,6.45
2022-08-20T03:03:29.564Z,9.40
2022-08-20T03:08:31.564Z,6.80
2022-08-20T03:13:33.799Z,6.75
2022-08-20T03:18:40.931Z,6.57
2022-08-20T03:23:43.729Z,6.43
2022-08-20T03:28:45.489Z,5.95
2022-08-20T03:33:53.616Z,4.70
2022-08-20T03:39:01.006Z,6.57
2022-08-20T03:44:03.083Z,8.25
2022-08-20T03:49:05.473Z,6.47
2022-08-20T03:54:07.279Z,5.93
2022-08-20T03:59:09.126Z,5.82
2022-08-20T04:04:12.603Z,7.90
2022-08-20T04:09:15.389Z,7.35
2022-08-20T04:14:18.491Z,8.23
2022-08-20T04:19:21.594Z,6.22
2022-08-20T04:24:32.074Z,5.68
2022-08-20T04:29:36.684Z,7.35
2022-08-20T04:34:39.202Z,7.18
2022-08-20T04:39:41.032Z,5.15
2022-08-20T04:44:42.810Z,8.40
2022-08-20T04:49:44.566Z,4.60
2022-08-20T04:54:46.930Z,6.03
2022-08-20T04:59:48.701Z,3.95
2022-08-20T05:04:50.670Z,3.58
2022-08-20T05:09:52.440Z,4.57
2022-08-20T05:14:54.251Z,4.13
2022-08-20T05:19:57.355Z,4.90
2022-08-20T05:25:01.603Z,2.85
2022-08-20T05:30:08.797Z,2.40
2022-08-20T05:35:13.535Z,5.63
2022-08-20T05:40:16.254Z,6.03
2022-08-20T05:45:18.265Z,3.83
2022-08-20T05:50:23.299Z,5.00
2022-08-20T05:55:25.354Z,3.75
2022-08-20T06:00:27.938Z,5.55
2022-08-20T06:05:29.727Z,4.53
2022-08-20T06:10:31.914Z,11.00
2022-08-20T06:15:34.721Z,4.97
2022-08-20T06:20:38.380Z,5.43
2022-08-20T06:25:40.150Z,4.50
2022-08-20T06:30:41.991Z,5.57
2022-08-20T06:35:44.628Z,6.38
2022-08-20T06:40:46.385Z,6.05
2022-08-20T06:45:48.179Z,7.32
2022-08-20T06:50:50.135Z,7.05
2022-08-20T06:55:55.185Z,7.57
2022-08-20T07:00:56.992Z,7.47
2022-08-20T07:05:59.408Z,7.10
2022-08-20T07:11:01.694Z,8.90
2022-08-20T07:16:05.147Z,8.98
2022-08-20T07:21:06.912Z,9.00
2022-08-20T07:26:08.765Z,9.65
2022-08-20T07:31:31.276Z,9.68
2022-08-20T07:36:33.425Z,8.68
2022-08-20T07:41:35.251Z,9.63
2022-08-20T07:46:37.076Z,9.80
2022-08-20T07:51:38.879Z,9.85
2022-08-20T07:56:40.650Z,9.25
2022-08-20T08:01:42.418Z,10.15
2022-08-20T08:06:45.407Z,10.88
2022-08-20T08:11:50.496Z,10.27
2022-08-20T08:16:57.221Z,11.90
2022-08-20T08:21:59.021Z,10.98
2022-08-20T08:27:00.846Z,10.23
2022-08-20T08:32:04.360Z,9.15
2022-08-20T08:37:06.151Z,11.18
2022-08-20T08:42:27.122Z,10.35
2022-08-20T08:47:35.929Z,10.52
2022-08-20T08:52:42.744Z,11.07
2022-08-20T08:57:46.605Z,11.90
2022-08-20T09:03:01.729Z,14.38
2022-08-20T09:08:06.927Z,12.32
2022-08-20T09:13:08.951Z,12.85
2022-08-20T09:18:10.718Z,12.90
2022-08-20T09:23:12.794Z,12.90
2022-08-20T09:28:14.611Z,12.90
2022-08-20T09:33:16.658Z,13.82
2022-08-20T09:38:18.489Z,14.80
2022-08-20T09:43:20.334Z,14.25
2022-08-20T09:48:22.119Z,13.48
2022-08-20T09:53:34.818Z,13.77
2022-08-20T09:58:39.494Z,15.27
2022-08-20T10:03:42.895Z,15.43
2022-08-20T10:08:44.669Z,14.48
2022-08-20T10:13:46.465Z,14.88
2022-08-20T10:18:50.950Z,16.77
2022-08-20T10:23:52.784Z,16.77
2022-08-20T10:28:55.910Z,17.45
2022-08-20T10:33:57.907Z,15.95
2022-08-20T10:38:59.811Z,18.08
2022-08-20T10:44:01.591Z,16.90
2022-08-20T10:49:03.819Z,15.73
2022-08-20T10:54:08.200Z,16.45
2022-08-20T10:59:13.987Z,16.00
2022-08-20T11:04:15.798Z,16.60
2022-08-20T11:09:17.562Z,17.88
2022-08-20T11:14:19.318Z,16.75
2022-08-20T11:19:21.075Z,17.00
2022-08-20T11:24:22.937Z,17.40
2022-08-20T11:29:24.997Z,17.48
2022-08-20T11:34:26.850Z,17.38
2022-08-20T11:39:28.706Z,19.05
2022-08-20T11:44:30.495Z,17.27
2022-08-20T11:49:34.795Z,17.83
2022-08-20T11:54:40.410Z,18.70
2022-08-20T11:59:42.574Z,19.60
2022-08-20T12:04:44.455Z,20.33
2022-08-20T12:09:51.121Z,21.40
2022-08-20T12:14:55.595Z,20.70
2022-08-20T12:20:01.620Z,20.88
2022-08-20T12:25:04.882Z,20.33
2022-08-20T12:30:14.045Z,17.35
2022-08-20T12:35:17.966Z,19.42
2022-08-20T12:40:30.541Z,22.77
2022-08-20T12:45:34.747Z,19.92
2022-08-20T12:50:39.027Z,22.77
2022-08-20T12:55:41.179Z,22.65
2022-08-20T13:00:50.337Z,23.17
2022-08-20T13:05:52.899Z,21.35
2022-08-20T13:10:54.650Z,23.88
2022-08-20T13:15:56.434Z,22.30
2022-08-20T13:20:58.214Z,23.45
2022-08-20T13:26:00.074Z,23.83
2022-08-20T13:31:04.539Z,24.02
2022-08-20T13:36:06.583Z,25.95
2022-08-20T13:41:08.353Z,25.27
2022-08-20T13:46:10.230Z,25.98
2022-08-20T13:51:12.121Z,25.90
2022-08-20T13:56:13.964Z,27.25
2022-08-20T14:01:15.768Z,26.27
2022-08-20T14:06:17.558Z,26.83
2022-08-20T14:11:19.412Z,28.83
2022-08-20T14:16:25.480Z,29.02
2022-08-20T14:21:29.626Z,30.70
2022-08-20T14:26:31.379Z,34.22
2022-08-20T14:31:33.145Z,35.67
2022-08-20T14:36:35.026Z,36.10
2022-08-20T14:41:36.782Z,35.03
2022-08-20T14:46:38.549Z,38.85
2022-08-20T14:51:40.402Z,38.55
2022-08-20T14:56:42.415Z,33.25
2022-08-20T15:01:44.259Z,36.03
2022-08-20T15:06:47.190Z,35.97
2022-08-20T15:11:49.257Z,37.72
2022-08-20T15:16:51.379Z,34.45
2022-08-20T15:21:53.174Z,36.53
2022-08-20T15:26:55.056Z,35.40
2022-08-20T15:31:58.167Z,31.90
2022-08-20T15:37:06.987Z,35.35
2022-08-20T15:42:10.491Z,36.92
2022-08-20T15:47:35.836Z,36.30
2022-08-20T15:52:42.186Z,38.00
2022-08-20T15:57:59.258Z,33.60
2022-08-20T16:03:25.988Z,34.92
2022-08-20T16:08:41.375Z,34.35
2022-08-20T16:13:54.317Z,36.05
2022-08-20T16:19:00.512Z,34.35
2022-08-20T16:24:05.746Z,36.30
2022-08-20T16:29:26.216Z,36.78
2022-08-20T16:34:40.423Z,34.00
2022-08-20T16:40:10.346Z,37.15
2022-08-20T16:45:34.726Z,35.35
2022-08-20T16:51:01.414Z,32.10
2022-08-20T16:56:03.813Z,36.95
2022-08-20T17:01:14.684Z,33.63
2022-08-20T17:06:41.582Z,35.45
2022-08-20T17:11:43.424Z,34.78
2022-08-20T17:16:51.542Z,32.90
2022-08-20T17:21:53.615Z,31.38
2022-08-20T17:27:02.330Z,33.60
2022-08-20T17:32:26.498Z,31.83
2022-08-20T17:37:40.794Z,35.58
2022-08-20T17:43:01.329Z,35.95
2022-08-20T17:48:07.012Z,35.75
2022-08-20T17:53:23.412Z,33.25
2022-08-20T17:58:37.897Z,34.47
2022-08-20T18:03:39.928Z,34.17
2022-08-20T18:08:57.279Z,35.05
2022-08-20T18:14:03.459Z,35.55
2022-08-20T18:19:17.884Z,34.15
2022-08-20T18:24:44.266Z,34.55
2022-08-20T18:29:51.227Z,34.30
2022-08-20T18:34:54.338Z,35.40
2022-08-20T18:40:18.489Z,37.17
2022-08-20T18:45:32.496Z,34.25
2022-08-20T18:50:47.464Z,34.28
2022-08-20T18:56:08.949Z,34.78
2022-08-20T19:01:13.536Z,29.95
2022-08-20T19:06:31.436Z,30.02
2022-08-20T19:11:51.690Z,29.33
2022-08-20T19:17:01.966Z,28.00
2022-08-20T19:22:04.538Z,28.17
2022-08-20T19:27:08.909Z,28.70
2022-08-20T19:32:19.155Z,29.48
2022-08-20T19:37:34.350Z,30.40
2022-08-20T19:42:43.415Z,28.08
2022-08-20T19:48:05.499Z,29.75
2022-08-20T19:53:07.222Z,27.52
2022-08-20T19:58:26.614Z,27.48
2022-08-20T20:03:32.178Z,30.33
2022-08-20T20:08:41.443Z,30.60
2022-08-20T20:13:44.349Z,31.15
2022-08-20T20:18:54.813Z,31.08
2022-08-20T20:24:06.837Z,33.78
2022-08-20T20:29:21.446Z,32.92
2022-08-20T20:34:35.866Z,33.83
2022-08-20T20:39:42.439Z,31.60
2022-08-20T20:44:44.889Z,32.70
2022-08-20T20:49:54.132Z,31.20
2022-08-20T20:55:14.311Z,32.15
2022-08-20T21:00:18.975Z,31.63
2022-08-20T21:05:25.003Z,32.40
2022-08-20T21:10:32.116Z,32.78
2022-08-20T21:15:35.813Z,32.15
2022-08-20T21:20:38.020Z,34.67
2022-08-20T21:25:40.534Z,31.40
2022-08-20T21:30:42.295Z,31.70
2022-08-20T21:35:44.583Z,32.92
2022-08-20T21:40:46.386Z,32.80
2022-08-20T21:45:49.672Z,33.90
2022-08-20T21:50:51.578Z,32.08
2022-08-20T21:55:53.493Z,29.17
2022-08-20T22:01:00.490Z,31.85
2022-08-20T22:06:04.734Z,28.13
2022-08-20T22:11:09.454Z,33.05
2022-08-20T22:16:14.878Z,31.23
2022-08-20T22:21:25.492Z,30.20
2022-08-20T22:26:28.018Z,27.75
2022-08-20T22:31:32.313Z,26.55
2022-08-20T22:36:34.390Z,26.30
2022-08-20T22:41:36.965Z,25.23
2022-08-20T22:46:47.366Z,23.27
2022-08-20T22:51:50.795Z,22.52
2022-08-20T22:56:55.454Z,20.27
2022-08-20T23:01:57.410Z,21.05
2022-08-20T23:07:00.448Z,21.20
2022-08-20T23:12:02.307Z,19.85
2022-08-20T23:17:13.118Z,18.80
2022-08-20T23:22:16.098Z,18.88
2022-08-20T23:27:20.643Z,18.50
2022-08-20T23:32:22.439Z,17.40
2022-08-20T23:37:24.345Z,18.70
2022-08-20T23:42:26.214Z,18.65
2022-08-20T23:47:28.642Z,17.30
2022-08-20T23:52:30.622Z,17.33
2022-08-20T23:57:32.958Z,17.38
